Time;durP1;ratioP1;P1;durP2;ratioP2;P2;SDS_P1;SDS_P2;PMS_P1;PMS_P2;Temp;Humidity;BMP_temperature;BMP_pressure;BME280_temperature;BME280_humidity;BME280_pressure;Samples;Min_cycle;Max_cycle;Signal;HPM_P1;HPM_P2
2022/01/08 00:01:09;;;;;;;58.60;3.50;;;;;;;;;;5113985;28;20220;-66
2022/01/08 00:03:36;;;;;;;59.28;3.40;;;;;;;;;;5114595;28;20231;-66
2022/01/08 00:06:03;;;;;;;59.30;3.20;;;;;;;;;;5114648;28;20303;-66
2022/01/08 00:08:30;;;;;;;58.78;3.05;;;;;;;;;;5114106;28;20299;-66
2022/01/08 00:10:57;;;;;;;58.65;2.97;;;;;;;;;;5113837;28;20235;-66
2022/01/08 00:13:26;;;;;;;59.53;4.43;;;;;;;;;;5115587;28;20672;-66
2022/01/08 00:15:53;;;;;;;61.60;4.95;;;;;;;;;;5115383;28;20244;-66
2022/01/08 00:18:20;;;;;;;66.30;7.25;;;;;;;;;;5114898;28;20687;-67
2022/01/08 00:20:47;;;;;;;62.70;4.38;;;;;;;;;;5102416;28;20205;-66
2022/01/08 00:23:14;;;;;;;59.78;4.03;;;;;;;;;;5093780;28;20241;-66
2022/01/08 00:25:42;;;;;;;60.00;3.90;;;;;;;;;;5093544;28;20248;-66
2022/01/08 00:28:09;;;;;;;61.60;5.15;;;;;;;;;;5092896;28;20308;-66
2022/01/08 00:30:37;;;;;;;59.58;4.25;;;;;;;;;;5093107;28;20209;-66
2022/01/08 00:33:04;;;;;;;61.58;5.20;;;;;;;;;;5093908;28;20224;-66
2022/01/08 00:35:33;;;;;;;61.88;5.25;;;;;;;;;;5093781;28;20552;-66
2022/01/08 00:38:00;;;;;;;59.50;4.53;;;;;;;;;;5093560;28;20484;-66
2022/01/08 00:40:28;;;;;;;61.10;5.72;;;;;;;;;;5093604;28;20209;-66
2022/01/08 00:42:55;;;;;;;60.53;4.55;;;;;;;;;;5094084;28;20231;-66
2022/01/08 00:45:22;;;;;;;59.38;4.75;;;;;;;;;;5094366;28;20582;-66
2022/01/08 00:47:51;;;;;;;59.60;4.20;;;;;;;;;;5093621;28;20213;-66
2022/01/08 00:50:18;;;;;;;59.85;4.65;;;;;;;;;;5093761;28;20639;-66
2022/01/08 00:52:46;;;;;;;60.10;4.50;;;;;;;;;;5105895;28;20322;-66
2022/01/08 00:55:14;;;;;;;59.88;4.45;;;;;;;;;;5113803;28;20622;-66
2022/01/08 00:57:41;;;;;;;61.17;4.00;;;;;;;;;;5113754;28;20310;-66
2022/01/08 01:00:09;;;;;;;59.05;3.70;;;;;;;;;;5114042;28;20210;-66
2022/01/08 01:02:36;;;;;;;59.22;4.30;;;;;;;;;;5113751;28;20327;-66
2022/01/08 01:05:06;;;;;;;63.30;4.50;;;;;;;;;;5114199;28;20200;-66
2022/01/08 01:07:33;;;;;;;58.92;3.90;;;;;;;;;;5113206;28;20200;-66
2022/01/08 01:10:00;;;;;;;64.30;4.80;;;;;;;;;;5114061;28;20211;-66
2022/01/08 01:12:27;;;;;;;60.45;4.60;;;;;;;;;;5113434;28;20320;-66
2022/01/08 01:14:55;;;;;;;60.15;4.10;;;;;;;;;;5114095;28;20235;-66
2022/01/08 01:17:23;;;;;;;59.20;4.22;;;;;;;;;;5112732;28;20740;-66
2022/01/08 01:19:50;;;;;;;60.97;3.92;;;;;;;;;;5113357;28;20208;-66
2022/01/08 01:22:23;;;;;;;59.58;3.80;;;;;;;;;;5112806;28;20311;-66
2022/01/08 01:24:51;;;;;;;60.55;4.95;;;;;;;;;;5112002;28;20661;-66
2022/01/08 01:30:05;;;;;;;59.70;4.40;;;;;;;;;;5112775;28;20843;-66
2022/01/08 01:41:21;;;;;;;57.95;3.95;;;;;;;;;;5075796;28;20236;-66
2022/01/08 01:49:11;;;;;;;58.47;4.05;;;;;;;;;;5098955;28;20239;-66
2022/01/08 01:51:38;;;;;;;59.20;3.50;;;;;;;;;;5113114;28;20392;-66
2022/01/08 01:54:06;;;;;;;59.75;3.92;;;;;;;;;;5110487;28;20204;-66
2022/01/08 01:56:34;;;;;;;59.55;3.83;;;;;;;;;;5092017;28;20204;-66
2022/01/08 01:59:01;;;;;;;58.75;3.70;;;;;;;;;;5091954;28;20211;-66
2022/01/08 02:01:28;;;;;;;57.95;3.22;;;;;;;;;;5092131;28;20217;-65
2022/01/08 02:03:55;;;;;;;58.78;3.25;;;;;;;;;;5095831;28;20542;-66
2022/01/08 02:06:22;;;;;;;60.53;3.47;;;;;;;;;;5113090;28;20295;-66
2022/01/08 02:08:50;;;;;;;58.78;3.70;;;;;;;;;;5112367;28;20216;-66
2022/01/08 02:11:20;;;;;;;58.00;3.28;;;;;;;;;;5112330;28;20235;-66
2022/01/08 02:13:47;;;;;;;62.00;3.97;;;;;;;;;;5112407;28;20207;-66
2022/01/08 02:16:17;;;;;;;63.60;3.63;;;;;;;;;;5112278;28;20299;-66
2022/01/08 02:18:45;;;;;;;60.70;4.47;;;;;;;;;;5112101;28;20215;-67
2022/01/08 02:21:14;;;;;;;58.58;3.50;;;;;;;;;;5112492;28;20787;-66
2022/01/08 02:23:41;;;;;;;58.63;3.38;;;;;;;;;;5112551;28;20210;-65
2022/01/08 02:26:10;;;;;;;59.25;3.40;;;;;;;;;;5110719;28;20295;-66
2022/01/08 02:28:38;;;;;;;58.42;3.38;;;;;;;;;;5111930;28;20747;-66
2022/01/08 02:31:05;;;;;;;58.25;3.42;;;;;;;;;;5112239;28;20224;-66
2022/01/08 02:33:33;;;;;;;59.60;3.45;;;;;;;;;;5112312;28;20320;-67
2022/01/08 02:36:05;;;;;;;58.72;3.60;;;;;;;;;;5112618;28;20581;-67
2022/01/08 02:38:33;;;;;;;59.03;3.50;;;;;;;;;;5111968;28;20711;-64
2022/01/08 02:41:03;;;;;;;58.13;3.33;;;;;;;;;;5112091;28;20319;-65
2022/01/08 02:43:33;;;;;;;58.15;4.35;;;;;;;;;;5112224;28;20204;-67
2022/01/08 02:46:01;;;;;;;58.20;3.45;;;;;;;;;;5112836;28;20204;-67
2022/01/08 02:48:28;;;;;;;58.17;3.30;;;;;;;;;;5111907;28;20207;-65
2022/01/08 02:50:55;;;;;;;58.97;3.40;;;;;;;;;;5112078;28;20228;-66
2022/01/08 02:53:22;;;;;;;58.90;3.20;;;;;;;;;;5112042;28;20224;-65
2022/01/08 02:55:51;;;;;;;58.47;3.60;;;;;;;;;;5112201;28;20204;-65
2022/01/08 02:58:19;;;;;;;60.03;3.83;;;;;;;;;;5110472;28;20679;-66
2022/01/08 03:00:46;;;;;;;58.10;3.70;;;;;;;;;;5112152;28;20215;-66
2022/01/08 03:03:13;;;;;;;59.20;4.25;;;;;;;;;;5112323;28;20232;-67
2022/01/08 03:05:40;;;;;;;60.90;3.80;;;;;;;;;;5112300;28;20291;-66
2022/01/08 03:08:08;;;;;;;60.17;3.92;;;;;;;;;;5111725;28;20597;-67
2022/01/08 03:10:35;;;;;;;58.50;3.55;;;;;;;;;;5112319;28;20200;-67
2022/01/08 03:13:04;;;;;;;59.72;3.58;;;;;;;;;;5111877;28;20231;-67
2022/01/08 03:15:34;;;;;;;60.42;3.85;;;;;;;;;;5112581;28;20209;-66
2022/01/08 03:18:01;;;;;;;59.33;3.00;;;;;;;;;;5115919;28;20298;-67
2022/01/08 03:20:28;;;;;;;59.28;3.80;;;;;;;;;;5115703;28;20210;-67
2022/01/08 03:23:01;;;;;;;59.00;3.53;;;;;;;;;;5115811;28;20251;-67
2022/01/08 03:25:29;;;;;;;59.08;3.80;;;;;;;;;;5115597;28;20212;-66
2022/01/08 03:27:56;;;;;;;59.67;3.67;;;;;;;;;;5115195;28;20208;-67
2022/01/08 03:30:28;;;;;;;58.42;3.85;;;;;;;;;;5115516;28;20243;-67
2022/01/08 03:32:55;;;;;;;57.88;3.65;;;;;;;;;;5115064;28;20229;-66
2022/01/08 03:35:22;;;;;;;58.22;3.40;;;;;;;;;;5115515;28;20245;-67
2022/01/08 03:37:49;;;;;;;60.50;3.60;;;;;;;;;;5115341;28;20204;-67
2022/01/08 03:40:16;;;;;;;60.20;3.90;;;;;;;;;;5115293;28;20207;-67
2022/01/08 03:42:43;;;;;;;60.70;3.40;;;;;;;;;;5115238;28;20311;-67
2022/01/08 03:45:11;;;;;;;59.55;3.17;;;;;;;;;;5115769;28;20204;-67
2022/01/08 03:48:05;;;;;;;59.17;3.05;;;;;;;;;;5115276;28;20208;-67
2022/01/08 03:50:32;;;;;;;60.55;3.22;;;;;;;;;;5115082;28;20312;-66
2022/01/08 03:52:59;;;;;;;60.33;3.40;;;;;;;;;;5114984;28;20224;-67
2022/01/08 03:55:26;;;;;;;58.08;3.30;;;;;;;;;;5115251;28;20303;-67
2022/01/08 03:57:53;;;;;;;57.83;3.05;;;;;;;;;;5114725;28;20308;-66
2022/01/08 04:00:20;;;;;;;58.60;3.30;;;;;;;;;;5115076;28;20295;-66
2022/01/08 04:02:50;;;;;;;59.30;3.67;;;;;;;;;;5115305;28;20574;-67
2022/01/08 04:05:17;;;;;;;58.50;3.20;;;;;;;;;;5114987;28;20257;-67
2022/01/08 04:07:44;;;;;;;59.63;3.30;;;;;;;;;;5114462;28;20200;-67
2022/01/08 04:10:11;;;;;;;60.33;3.42;;;;;;;;;;5114907;28;20211;-67
2022/01/08 04:12:42;;;;;;;59.33;3.60;;;;;;;;;;5114275;28;20221;-67
2022/01/08 04:15:31;;;;;;;58.10;3.42;;;;;;;;;;5114775;27;20208;-67
2022/01/08 04:17:58;;;;;;;59.22;3.45;;;;;;;;;;5114338;28;20203;-67
2022/01/08 04:20:25;;;;;;;58.45;3.35;;;;;;;;;;5114588;28;20213;-67
2022/01/08 04:22:53;;;;;;;57.97;3.95;;;;;;;;;;5114457;28;20224;-66
2022/01/08 04:25:21;;;;;;;58.35;3.60;;;;;;;;;;5114811;28;20204;-67
2022/01/08 04:27:48;;;;;;;58.17;3.50;;;;;;;;;;5114068;27;20215;-67
2022/01/08 04:30:15;;;;;;;64.57;3.50;;;;;;;;;;5114417;28;20204;-67
2022/01/08 04:32:42;;;;;;;58.15;3.55;;;;;;;;;;5114397;28;20228;-66
2022/01/08 04:35:11;;;;;;;58.75;3.35;;;;;;;;;;5114289;28;20208;-67
2022/01/08 04:37:38;;;;;;;58.03;3.40;;;;;;;;;;5113653;27;20211;-66
2022/01/08 04:40:06;;;;;;;59.60;3.60;;;;;;;;;;5114452;28;20801;-66
2022/01/08 04:42:33;;;;;;;60.92;3.72;;;;;;;;;;5114640;28;20223;-67
2022/01/08 04:45:00;;;;;;;60.67;3.88;;;;;;;;;;5114423;28;20200;-66
2022/01/08 04:47:28;;;;;;;58.65;3.90;;;;;;;;;;5114178;28;20585;-67
2022/01/08 04:49:55;;;;;;;59.08;3.70;;;;;;;;;;5114029;28;20246;-67
2022/01/08 04:52:24;;;;;;;58.70;3.85;;;;;;;;;;5113975;28;20228;-66
2022/01/08 04:54:51;;;;;;;59.58;3.92;;;;;;;;;;5113955;28;20303;-66
2022/01/08 04:57:19;;;;;;;59.78;4.28;;;;;;;;;;5113924;28;20208;-67
2022/01/08 04:59:46;;;;;;;58.10;3.40;;;;;;;;;;5113690;28;20209;-67
2022/01/08 05:02:13;;;;;;;58.90;4.22;;;;;;;;;;5113839;28;20240;-67
2022/01/08 05:04:40;;;;;;;60.75;3.60;;;;;;;;;;5113595;28;20240;-67
2022/01/08 05:07:07;;;;;;;58.90;3.50;;;;;;;;;;5113450;28;20200;-66
2022/01/08 05:09:36;;;;;;;58.40;3.83;;;;;;;;;;5113079;28;20212;-67
2022/01/08 05:12:03;;;;;;;58.83;4.03;;;;;;;;;;5113507;28;20224;-67
2022/01/08 05:14:30;;;;;;;58.20;3.60;;;;;;;;;;5113130;28;20824;-68
2022/01/08 05:17:00;;;;;;;58.90;3.63;;;;;;;;;;5113471;28;20560;-68
2022/01/08 05:19:37;;;;;;;59.38;4.05;;;;;;;;;;5113549;28;20211;-68
2022/01/08 05:22:07;;;;;;;58.00;3.40;;;;;;;;;;5113383;28;20246;-68
2022/01/08 05:24:35;;;;;;;60.60;3.97;;;;;;;;;;5113314;28;20208;-68
2022/01/08 05:27:05;;;;;;;58.72;3.90;;;;;;;;;;5113445;28;20321;-67
2022/01/08 05:29:33;;;;;;;58.70;3.40;;;;;;;;;;5112981;28;20215;-68
2022/01/08 05:32:00;;;;;;;60.05;4.25;;;;;;;;;;5112962;28;20247;-68
2022/01/08 05:34:27;;;;;;;58.65;3.55;;;;;;;;;;5113016;28;20227;-68
2022/01/08 05:36:56;;;;;;;58.40;3.55;;;;;;;;;;5113129;28;20209;-67
2022/01/08 05:39:23;;;;;;;59.28;3.65;;;;;;;;;;5112634;28;20200;-68
2022/01/08 05:41:51;;;;;;;58.80;3.78;;;;;;;;;;5113318;28;20598;-68
2022/01/08 05:44:18;;;;;;;59.40;4.22;;;;;;;;;;5113071;28;20672;-68
2022/01/08 05:46:47;;;;;;;58.92;3.70;;;;;;;;;;5113370;28;20215;-68
2022/01/08 05:49:15;;;;;;;58.67;4.00;;;;;;;;;;5112898;28;20204;-68
2022/01/08 05:51:42;;;;;;;60.20;3.90;;;;;;;;;;5113258;28;20533;-68
2022/01/08 05:54:09;;;;;;;58.47;3.55;;;;;;;;;;5112707;28;20220;-68
2022/01/08 05:56:37;;;;;;;58.17;3.55;;;;;;;;;;5113137;28;20211;-68
2022/01/08 05:59:06;;;;;;;58.80;3.47;;;;;;;;;;5112781;28;20200;-68
2022/01/08 06:01:34;;;;;;;58.53;3.20;;;;;;;;;;5112929;28;20228;-68
2022/01/08 06:04:04;;;;;;;58.90;3.72;;;;;;;;;;5112806;27;20588;-68
2022/01/08 06:06:31;;;;;;;59.88;3.70;;;;;;;;;;5112984;28;20205;-68
2022/01/08 06:08:58;;;;;;;58.28;3.42;;;;;;;;;;5112618;28;20222;-68
2022/01/08 06:11:26;;;;;;;58.40;3.25;;;;;;;;;;5112648;28;20228;-68
2022/01/08 06:13:53;;;;;;;58.40;3.42;;;;;;;;;;5112940;28;20466;-68
2022/01/08 06:16:21;;;;;;;58.65;4.00;;;;;;;;;;5112375;28;20687;-67
2022/01/08 06:18:48;;;;;;;58.58;3.50;;;;;;;;;;5112619;28;20644;-67
2022/01/08 06:21:15;;;;;;;57.97;3.20;;;;;;;;;;5112162;28;20722;-68
2022/01/08 06:23:43;;;;;;;58.40;3.30;;;;;;;;;;5112451;28;20731;-67
2022/01/08 06:26:10;;;;;;;57.95;3.25;;;;;;;;;;5112347;28;20302;-67
2022/01/08 06:28:37;;;;;;;57.95;3.08;;;;;;;;;;5112094;28;20211;-67
2022/01/08 06:31:04;;;;;;;57.72;3.30;;;;;;;;;;5112539;28;20227;-67
2022/01/08 06:33:32;;;;;;;57.78;3.20;;;;;;;;;;5112477;28;20589;-67
2022/01/08 06:36:00;;;;;;;58.47;3.22;;;;;;;;;;5112167;28;20291;-67
2022/01/08 06:38:27;;;;;;;58.90;3.50;;;;;;;;;;5111969;28;20297;-67
2022/01/08 06:40:54;;;;;;;57.88;3.40;;;;;;;;;;5112037;28;20251;-67
2022/01/08 06:43:21;;;;;;;58.38;3.40;;;;;;;;;;5112093;28;20292;-67
2022/01/08 06:45:48;;;;;;;59.25;3.38;;;;;;;;;;5112461;28;20576;-67
2022/01/08 06:48:15;;;;;;;58.22;3.90;;;;;;;;;;5111822;28;20200;-67
2022/01/08 06:50:44;;;;;;;59.28;3.92;;;;;;;;;;5112428;28;20204;-67
2022/01/08 06:53:11;;;;;;;58.58;3.90;;;;;;;;;;5115727;28;20696;-67
2022/01/08 06:55:38;;;;;;;59.60;3.90;;;;;;;;;;5115945;28;20208;-67
2022/01/08 06:58:05;;;;;;;58.30;3.40;;;;;;;;;;5116203;28;20303;-67
2022/01/08 07:00:32;;;;;;;58.45;4.10;;;;;;;;;;5116306;27;20204;-67
2022/01/08 07:03:00;;;;;;;57.92;3.50;;;;;;;;;;5116175;28;20206;-67
2022/01/08 07:05:27;;;;;;;58.85;3.75;;;;;;;;;;5115855;28;20216;-67
2022/01/08 07:07:56;;;;;;;58.30;3.70;;;;;;;;;;5115977;27;20645;-67
2022/01/08 07:10:23;;;;;;;59.47;3.95;;;;;;;;;;5116112;28;20306;-68
2022/01/08 07:12:50;;;;;;;58.33;4.00;;;;;;;;;;5115431;28;20314;-67
2022/01/08 07:15:17;;;;;;;59.45;4.10;;;;;;;;;;5115862;28;20586;-67
2022/01/08 07:17:44;;;;;;;59.17;4.20;;;;;;;;;;5115853;28;20211;-67
2022/01/08 07:20:12;;;;;;;58.90;3.70;;;;;;;;;;5115819;28;20271;-67
2022/01/08 07:22:39;;;;;;;59.60;4.22;;;;;;;;;;5115544;28;20227;-67
2022/01/08 07:25:09;;;;;;;59.97;4.28;;;;;;;;;;5115721;28;20223;-67
2022/01/08 07:27:36;;;;;;;59.58;4.22;;;;;;;;;;5116629;28;20235;-67
2022/01/08 07:30:05;;;;;;;61.53;3.95;;;;;;;;;;5116791;28;20208;-67
2022/01/08 07:32:32;;;;;;;58.53;3.70;;;;;;;;;;5116374;28;20602;-67
2022/01/08 07:34:59;;;;;;;60.08;4.50;;;;;;;;;;5116645;28;20228;-67
2022/01/08 07:37:26;;;;;;;60.88;3.95;;;;;;;;;;5116159;28;20356;-67
2022/01/08 07:39:53;;;;;;;58.80;4.00;;;;;;;;;;5116448;28;20208;-67
2022/01/08 07:42:22;;;;;;;58.85;4.07;;;;;;;;;;5115121;28;20740;-67
2022/01/08 07:44:49;;;;;;;59.00;4.10;;;;;;;;;;5115071;28;20250;-67
2022/01/08 07:47:17;;;;;;;59.72;4.07;;;;;;;;;;5114639;28;20292;-67
2022/01/08 07:49:44;;;;;;;59.25;4.60;;;;;;;;;;5114985;28;20261;-67
2022/01/08 07:52:11;;;;;;;60.40;4.32;;;;;;;;;;5114964;28;20420;-67
2022/01/08 07:54:38;;;;;;;61.05;4.00;;;;;;;;;;5114752;28;20593;-67
2022/01/08 07:57:06;;;;;;;60.75;4.35;;;;;;;;;;5114891;28;20850;-67
2022/01/08 07:59:34;;;;;;;60.20;4.13;;;;;;;;;;5114352;28;20287;-67
2022/01/08 08:02:01;;;;;;;62.50;5.20;;;;;;;;;;5114344;28;20232;-67
2022/01/08 08:04:28;;;;;;;62.15;5.05;;;;;;;;;;5114617;28;20612;-67
2022/01/08 08:06:56;;;;;;;60.05;4.63;;;;;;;;;;5114677;28;20212;-67
2022/01/08 08:09:23;;;;;;;63.20;5.18;;;;;;;;;;5114248;28;20215;-67
2022/01/08 08:11:50;;;;;;;61.15;5.70;;;;;;;;;;5114533;28;20315;-67
2022/01/08 08:14:17;;;;;;;61.38;5.07;;;;;;;;;;5114104;28;20219;-67
2022/01/08 08:16:45;;;;;;;59.95;4.50;;;;;;;;;;5114444;28;20210;-67
2022/01/08 08:19:13;;;;;;;59.70;4.47;;;;;;;;;;5114130;28;20210;-67
2022/01/08 08:21:40;;;;;;;65.65;5.00;;;;;;;;;;5114076;28;20228;-67
2022/01/08 08:24:07;;;;;;;60.05;4.80;;;;;;;;;;5114117;28;20590;-67
2022/01/08 08:26:34;;;;;;;62.13;5.07;;;;;;;;;;5114004;28;20207;-67
2022/01/08 08:29:02;;;;;;;62.25;5.63;;;;;;;;;;5113712;28;20204;-67
2022/01/08 08:31:29;;;;;;;60.30;4.25;;;;;;;;;;5113825;28;20315;-67
2022/01/08 08:33:57;;;;;;;60.45;4.95;;;;;;;;;;5113897;28;20227;-67
2022/01/08 08:36:24;;;;;;;59.08;4.00;;;;;;;;;;5113763;27;20289;-67
2022/01/08 08:38:51;;;;;;;59.65;4.75;;;;;;;;;;5113625;28;20299;-67
2022/01/08 08:41:19;;;;;;;59.53;4.72;;;;;;;;;;5113678;28;20319;-67
2022/01/08 08:43:46;;;;;;;59.85;5.32;;;;;;;;;;5114039;28;20690;-67
2022/01/08 08:46:13;;;;;;;60.10;5.00;;;;;;;;;;5113925;28;20210;-66
2022/01/08 08:48:40;;;;;;;60.00;4.75;;;;;;;;;;5113616;28;20627;-67
2022/01/08 08:51:08;;;;;;;59.65;4.18;;;;;;;;;;5113483;28;20681;-67
2022/01/08 08:53:36;;;;;;;59.88;4.35;;;;;;;;;;5113553;28;20214;-67
2022/01/08 08:56:04;;;;;;;62.67;4.30;;;;;;;;;;5113801;28;20243;-67
2022/01/08 08:58:31;;;;;;;61.10;5.32;;;;;;;;;;5113340;28;20756;-67
2022/01/08 09:00:58;;;;;;;58.28;4.00;;;;;;;;;;5113652;28;20221;-67
2022/01/08 09:03:25;;;;;;;58.70;4.60;;;;;;;;;;5113498;28;20226;-67
2022/01/08 09:05:53;;;;;;;59.65;4.30;;;;;;;;;;5113738;28;20660;-67
2022/01/08 09:08:21;;;;;;;60.35;3.90;;;;;;;;;;5112788;28;20216;-67
2022/01/08 09:10:48;;;;;;;58.67;3.85;;;;;;;;;;5113657;28;20207;-67
2022/01/08 09:13:15;;;;;;;58.85;3.97;;;;;;;;;;5112969;28;20676;-67
2022/01/08 09:15:42;;;;;;;61.40;4.03;;;;;;;;;;5113589;28;20250;-67
2022/01/08 09:18:10;;;;;;;64.32;4.03;;;;;;;;;;5113151;28;20204;-67
2022/01/08 09:20:37;;;;;;;59.63;4.00;;;;;;;;;;5113295;28;20208;-66
2022/01/08 09:23:05;;;;;;;60.95;4.63;;;;;;;;;;5112832;28;20243;-66
2022/01/08 09:25:33;;;;;;;61.03;4.05;;;;;;;;;;5113351;28;20649;-66
2022/01/08 09:28:00;;;;;;;62.30;4.38;;;;;;;;;;5112531;28;20204;-67
2022/01/08 09:30:28;;;;;;;59.15;4.10;;;;;;;;;;5112902;28;20214;-67
2022/01/08 09:32:55;;;;;;;62.30;4.20;;;;;;;;;;5112991;28;20742;-66
2022/01/08 09:35:22;;;;;;;64.28;5.18;;;;;;;;;;5112971;28;20216;-66
2022/01/08 09:37:50;;;;;;;60.88;4.20;;;;;;;;;;5112631;28;20281;-67
2022/01/08 09:40:18;;;;;;;60.50;3.78;;;;;;;;;;5112916;28;20231;-67
2022/01/08 09:42:47;;;;;;;60.15;4.03;;;;;;;;;;5112441;28;20224;-66
2022/01/08 09:45:14;;;;;;;61.28;4.50;;;;;;;;;;5112657;28;20200;-67
2022/01/08 09:47:41;;;;;;;59.17;3.90;;;;;;;;;;5112256;28;20291;-66
2022/01/08 09:50:09;;;;;;;59.40;4.00;;;;;;;;;;5112337;28;20684;-67
2022/01/08 09:52:36;;;;;;;57.78;3.40;;;;;;;;;;5112569;28;20311;-67
2022/01/08 09:55:04;;;;;;;60.70;4.70;;;;;;;;;;5112574;28;20315;-67
2022/01/08 09:57:32;;;;;;;59.55;3.90;;;;;;;;;;5112477;28;20213;-67
2022/01/08 10:00:00;;;;;;;58.17;3.75;;;;;;;;;;5112303;28;20312;-67
2022/01/08 10:02:27;;;;;;;59.17;3.50;;;;;;;;;;5112101;28;20238;-66
2022/01/08 10:04:54;;;;;;;61.55;4.35;;;;;;;;;;5112569;28;20208;-66
2022/01/08 10:07:23;;;;;;;60.33;4.28;;;;;;;;;;5112476;28;20290;-66
2022/01/08 10:10:00;;;;;;;59.55;4.00;;;;;;;;;;5112567;28;20243;-67
2022/01/08 10:12:39;;;;;;;63.03;4.13;;;;;;;;;;5112313;28;20311;-66
2022/01/08 10:17:53;;;;;;;60.40;4.30;;;;;;;;;;5112170;28;20199;-67
2022/01/08 10:20:30;;;;;;;60.00;3.60;;;;;;;;;;5112321;28;20207;-67
2022/01/08 10:23:15;;;;;;;60.45;4.30;;;;;;;;;;5112047;28;20227;-67
2022/01/08 10:25:43;;;;;;;59.92;3.72;;;;;;;;;;5114840;28;20192;-67
2022/01/08 10:28:10;;;;;;;59.50;4.28;;;;;;;;;;5116188;28;20208;-67
2022/01/08 10:30:39;;;;;;;63.45;3.75;;;;;;;;;;5116435;28;20574;-64
2022/01/08 10:33:06;;;;;;;59.63;4.03;;;;;;;;;;5116372;28;20397;-64
2022/01/08 10:35:52;;;;;;;59.05;3.83;;;;;;;;;;5116905;28;20602;-64
2022/01/08 10:38:19;;;;;;;60.22;3.95;;;;;;;;;;5116445;28;20210;-67
2022/01/08 10:40:46;;;;;;;59.43;3.50;;;;;;;;;;5116591;28;20210;-67
2022/01/08 10:43:21;;;;;;;60.60;3.60;;;;;;;;;;5117106;28;20453;-67
2022/01/08 10:45:49;;;;;;;59.63;3.67;;;;;;;;;;5116554;28;20926;-67
2022/01/08 10:48:25;;;;;;;65.40;3.40;;;;;;;;;;5116399;28;20442;-67
2022/01/08 10:50:52;;;;;;;59.07;3.07;;;;;;;;;;5116350;28;20471;-65
2022/01/08 10:53:19;;;;;;;61.53;3.60;;;;;;;;;;5115841;28;20446;-65
2022/01/08 10:55:46;;;;;;;58.37;3.10;;;;;;;;;;5115908;28;20868;-65
2022/01/08 10:58:13;;;;;;;63.57;3.40;;;;;;;;;;5115952;28;20972;-65
2022/01/08 11:00:41;;;;;;;59.83;3.37;;;;;;;;;;5115566;28;20938;-65
2022/01/08 11:03:09;;;;;;;61.87;4.43;;;;;;;;;;5116003;28;20461;-66
2022/01/08 11:06:00;;;;;;;59.27;3.27;;;;;;;;;;5115851;28;20438;-66
2022/01/08 11:08:28;;;;;;;59.47;3.30;;;;;;;;;;5115503;28;20546;-66
2022/01/08 11:10:55;;;;;;;63.80;3.73;;;;;;;;;;5115942;28;20842;-66
2022/01/08 11:13:22;;;;;;;59.30;3.27;;;;;;;;;;5116225;28;20540;-66
2022/01/08 11:15:51;;;;;;;59.77;3.33;;;;;;;;;;5116440;28;20480;-66
2022/01/08 11:18:20;;;;;;;58.90;3.13;;;;;;;;;;5116043;28;20446;-66
2022/01/08 11:20:48;;;;;;;59.20;3.50;;;;;;;;;;5116099;28;20445;-66
2022/01/08 11:23:22;;;;;;;59.47;3.60;;;;;;;;;;5115945;28;20499;-67
2022/01/08 11:25:50;;;;;;;58.20;3.03;;;;;;;;;;5115941;28;20445;-67
2022/01/08 11:28:19;;;;;;;62.50;3.47;;;;;;;;;;5115815;28;20450;-67
2022/01/08 11:30:47;;;;;;;59.60;3.37;;;;;;;;;;5115262;28;20938;-66
2022/01/08 11:33:18;;;;;;;61.30;3.63;;;;;;;;;;5115217;28;20454;-67
2022/01/08 11:35:47;;;;;;;58.43;3.23;;;;;;;;;;5115252;28;20850;-65
2022/01/08 11:38:16;;;;;;;59.97;2.90;;;;;;;;;;5114260;28;20536;-65
2022/01/08 11:40:44;;;;;;;58.70;3.03;;;;;;;;;;5115433;28;20533;-65
2022/01/08 11:43:12;;;;;;;63.60;3.13;;;;;;;;;;5114997;28;20454;-65
2022/01/08 11:45:43;;;;;;;58.67;3.17;;;;;;;;;;5115388;28;20919;-66
2022/01/08 11:48:12;;;;;;;58.53;3.33;;;;;;;;;;5114691;28;21157;-65
2022/01/08 11:50:39;;;;;;;59.77;3.33;;;;;;;;;;5115032;28;20448;-66
2022/01/08 11:53:15;;;;;;;59.80;3.17;;;;;;;;;;5114713;28;20442;-66
2022/01/08 11:55:43;;;;;;;58.60;3.00;;;;;;;;;;5115087;28;20566;-65
2022/01/08 11:58:22;;;;;;;59.17;3.47;;;;;;;;;;5114566;28;20945;-65
2022/01/08 12:00:51;;;;;;;59.57;3.13;;;;;;;;;;5114604;28;20489;-66
2022/01/08 12:03:21;;;;;;;59.80;3.50;;;;;;;;;;5114566;28;20468;-65
2022/01/08 12:05:49;;;;;;;58.50;3.40;;;;;;;;;;5114836;28;20446;-66
2022/01/08 12:08:19;;;;;;;61.63;3.17;;;;;;;;;;5114881;28;20462;-66
2022/01/08 12:11:00;;;;;;;59.03;3.13;;;;;;;;;;5114932;28;20537;-66
2022/01/08 12:13:45;;;;;;;59.20;3.50;;;;;;;;;;5114360;28;20442;-68
2022/01/08 12:16:31;;;;;;;63.23;3.50;;;;;;;;;;5114282;28;21108;-67
2022/01/08 12:18:58;;;;;;;59.73;3.30;;;;;;;;;;5114239;28;20445;-65
2022/01/08 12:21:32;;;;;;;59.90;3.23;;;;;;;;;;5114323;28;20553;-66
2022/01/08 12:24:21;;;;;;;61.60;3.30;;;;;;;;;;5114216;28;20449;-66
2022/01/08 12:26:48;;;;;;;58.77;3.07;;;;;;;;;;5114078;28;20468;-66
2022/01/08 12:29:32;;;;;;;62.03;3.27;;;;;;;;;;5114180;28;20446;-66
2022/01/08 12:32:14;;;;;;;59.37;3.10;;;;;;;;;;5114114;28;20462;-66
2022/01/08 12:34:49;;;;;;;59.03;2.87;;;;;;;;;;5114127;28;20452;-66
2022/01/08 12:37:17;;;;;;;58.40;3.07;;;;;;;;;;5114229;28;20454;-66
2022/01/08 12:39:49;;;;;;;60.87;3.30;;;;;;;;;;5114281;28;20474;-65
2022/01/08 12:42:32;;;;;;;59.87;3.63;;;;;;;;;;5113940;28;20468;-66
2022/01/08 12:45:00;;;;;;;58.37;3.10;;;;;;;;;;5113831;28;20809;-65
2022/01/08 12:47:47;;;;;;;59.03;3.27;;;;;;;;;;5113783;28;20545;-66
2022/01/08 12:50:32;;;;;;;58.97;3.20;;;;;;;;;;5113189;28;20528;-66
2022/01/08 12:53:12;;;;;;;59.10;3.27;;;;;;;;;;5113703;28;20961;-66
2022/01/08 12:55:42;;;;;;;58.60;3.20;;;;;;;;;;5113833;28;20492;-66
2022/01/08 12:58:19;;;;;;;58.87;2.90;;;;;;;;;;5113370;28;20934;-66
2022/01/08 13:00:56;;;;;;;58.67;2.93;;;;;;;;;;5113675;28;20536;-66
2022/01/08 13:03:24;;;;;;;59.27;3.60;;;;;;;;;;5113533;28;20992;-66
2022/01/08 13:05:51;;;;;;;59.10;3.20;;;;;;;;;;5113322;28;20442;-66
2022/01/08 13:08:23;;;;;;;58.67;3.00;;;;;;;;;;5113161;28;20458;-66
2022/01/08 13:10:56;;;;;;;60.00;3.60;;;;;;;;;;5113372;28;20442;-66
2022/01/08 13:13:23;;;;;;;58.87;3.10;;;;;;;;;;5113548;28;20442;-65
2022/01/08 13:15:51;;;;;;;58.20;3.00;;;;;;;;;;5113245;28;20481;-66
2022/01/08 13:18:19;;;;;;;58.90;3.43;;;;;;;;;;5113094;28;20876;-66
2022/01/08 13:20:46;;;;;;;58.70;3.50;;;;;;;;;;5113486;28;20631;-66
2022/01/08 13:23:13;;;;;;;58.50;2.97;;;;;;;;;;5113393;28;20477;-66
2022/01/08 13:25:41;;;;;;;58.70;3.30;;;;;;;;;;5113192;28;20449;-65
2022/01/08 13:28:10;;;;;;;58.67;3.10;;;;;;;;;;5112890;28;20452;-66
2022/01/08 13:30:37;;;;;;;63.50;3.80;;;;;;;;;;5112936;28;20446;-66
2022/01/08 13:33:05;;;;;;;58.80;2.97;;;;;;;;;;5112757;27;20800;-66
2022/01/08 13:35:34;;;;;;;58.80;3.20;;;;;;;;;;5112834;28;20477;-66
2022/01/08 13:38:01;;;;;;;59.13;3.27;;;;;;;;;;5112971;28;20474;-66
2022/01/08 13:40:28;;;;;;;58.63;3.40;;;;;;;;;;5112848;28;20525;-66
2022/01/08 13:42:55;;;;;;;58.63;3.40;;;;;;;;;;5112582;28;20504;-65
2022/01/08 13:45:26;;;;;;;59.30;3.30;;;;;;;;;;5112829;28;20715;-65
2022/01/08 13:47:54;;;;;;;59.70;3.47;;;;;;;;;;5112735;28;20473;-65
2022/01/08 13:50:23;;;;;;;59.83;3.42;;;;;;;;;;5112534;28;20546;-65
2022/01/08 13:52:53;;;;;;;62.00;3.47;;;;;;;;;;5112559;28;20316;-66
2022/01/08 13:55:22;;;;;;;59.15;3.50;;;;;;;;;;5112521;28;20266;-65
2022/01/08 13:57:53;;;;;;;59.75;3.67;;;;;;;;;;5112281;28;20204;-65
2022/01/08 14:00:22;;;;;;;58.47;3.30;;;;;;;;;;5112244;28;20306;-65
2022/01/08 14:02:52;;;;;;;60.03;3.88;;;;;;;;;;5112636;28;20316;-65
2022/01/08 14:05:19;;;;;;;59.67;3.60;;;;;;;;;;5112509;28;20207;-65
2022/01/08 14:07:47;;;;;;;60.15;3.85;;;;;;;;;;5112114;28;20224;-65
2022/01/08 14:10:16;;;;;;;59.00;3.85;;;;;;;;;;5112979;28;20205;-65
2022/01/08 14:12:58;;;;;;;64.03;4.30;;;;;;;;;;5112483;28;20231;-65
2022/01/08 14:15:26;;;;;;;59.17;3.70;;;;;;;;;;5112401;28;20224;-65
2022/01/08 14:17:55;;;;;;;59.63;3.90;;;;;;;;;;5112089;28;20210;-66
2022/01/08 14:20:24;;;;;;;58.97;3.88;;;;;;;;;;5112537;28;20270;-66
2022/01/08 14:22:51;;;;;;;58.50;3.35;;;;;;;;;;5112335;28;20764;-66
2022/01/08 14:25:19;;;;;;;58.80;3.58;;;;;;;;;;5112019;28;20200;-66
2022/01/08 14:27:46;;;;;;;60.13;3.60;;;;;;;;;;5112532;28;20287;-66
2022/01/08 14:30:14;;;;;;;58.97;3.60;;;;;;;;;;5112495;28;20581;-66
2022/01/08 14:32:41;;;;;;;59.40;3.45;;;;;;;;;;5112390;28;20228;-66
2022/01/08 14:35:10;;;;;;;59.45;4.15;;;;;;;;;;5112044;28;20696;-66
2022/01/08 14:37:39;;;;;;;59.38;3.90;;;;;;;;;;5111944;28;20299;-65
2022/01/08 14:40:17;;;;;;;61.13;3.97;;;;;;;;;;5111978;28;20215;-66
2022/01/08 14:42:44;;;;;;;59.88;3.53;;;;;;;;;;5111823;28;20223;-66
2022/01/08 14:45:18;;;;;;;58.90;3.67;;;;;;;;;;5112325;28;20208;-66
2022/01/08 14:47:45;;;;;;;59.05;3.47;;;;;;;;;;5111892;28;20228;-66
2022/01/08 14:50:14;;;;;;;61.88;4.22;;;;;;;;;;5111893;28;20296;-66
2022/01/08 14:52:42;;;;;;;60.63;3.42;;;;;;;;;;5111761;28;20234;-66
2022/01/08 14:55:10;;;;;;;63.83;3.95;;;;;;;;;;5112161;28;20295;-66
2022/01/08 14:57:38;;;;;;;58.97;3.65;;;;;;;;;;5111558;28;20226;-66
2022/01/08 15:00:06;;;;;;;61.20;3.70;;;;;;;;;;5111837;28;20204;-66